sensor_id;sensor_type;location;lat;lon;timestamp;P1;durP1;ratioP1;P2;durP2;ratioP2
46365;SDS011;32073;49.166;8.076;2023-05-07T00:02:05;1.50;;;0.93;;
46365;SDS011;32073;49.166;8.076;2023-05-07T00:06:07;2.08;;;1.05;;
46365;SDS011;32073;49.166;8.076;2023-05-07T00:10:08;2.22;;;1.55;;
46365;SDS011;32073;49.166;8.076;2023-05-07T00:14:10;2.55;;;1.30;;
46365;SDS011;32073;49.166;8.076;2023-05-07T00:18:10;2.20;;;1.27;;
46365;SDS011;32073;49.166;8.076;2023-05-07T00:22:11;1.77;;;1.10;;
46365;SDS011;32073;49.166;8.076;2023-05-07T00:26:12;4.78;;;1.00;;
46365;SDS011;32073;49.166;8.076;2023-05-07T00:30:12;1.65;;;1.00;;
46365;SDS011;32073;49.166;8.076;2023-05-07T00:34:13;1.73;;;0.90;;
46365;SDS011;32073;49.166;8.076;2023-05-07T00:38:14;2.55;;;1.00;;
46365;SDS011;32073;49.166;8.076;2023-05-07T00:42:15;3.05;;;1.08;;
46365;SDS011;32073;49.166;8.076;2023-05-07T00:46:16;1.48;;;1.10;;
46365;SDS011;32073;49.166;8.076;2023-05-07T00:50:16;1.55;;;1.10;;
46365;SDS011;32073;49.166;8.076;2023-05-07T00:54:19;1.98;;;1.10;;
46365;SDS011;32073;49.166;8.076;2023-05-07T00:58:20;1.95;;;1.10;;
46365;SDS011;32073;49.166;8.076;2023-05-07T01:02:21;2.97;;;1.25;;
46365;SDS011;32073;49.166;8.076;2023-05-07T01:06:22;2.38;;;1.00;;
46365;SDS011;32073;49.166;8.076;2023-05-07T01:10:25;1.50;;;0.90;;
46365;SDS011;32073;49.166;8.076;2023-05-07T01:14:26;1.77;;;1.40;;
46365;SDS011;32073;49.166;8.076;2023-05-07T01:18:27;1.65;;;1.05;;
46365;SDS011;32073;49.166;8.076;2023-05-07T01:22:30;1.40;;;0.90;;
46365;SDS011;32073;49.166;8.076;2023-05-07T01:26:33;3.40;;;1.15;;
46365;SDS011;32073;49.166;8.076;2023-05-07T01:30:34;1.27;;;0.80;;
46365;SDS011;32073;49.166;8.076;2023-05-07T01:34:35;2.58;;;1.08;;
46365;SDS011;32073;49.166;8.076;2023-05-07T01:38:37;1.33;;;1.15;;
46365;SDS011;32073;49.166;8.076;2023-05-07T01:42:40;5.13;;;1.27;;
46365;SDS011;32073;49.166;8.076;2023-05-07T01:46:43;1.60;;;0.98;;
46365;SDS011;32073;49.166;8.076;2023-05-07T01:50:44;1.73;;;1.10;;
46365;SDS011;32073;49.166;8.076;2023-05-07T01:54:45;1.42;;;1.10;;
46365;SDS011;32073;49.166;8.076;2023-05-07T01:58:45;2.03;;;1.00;;
46365;SDS011;32073;49.166;8.076;2023-05-07T02:02:46;1.20;;;0.80;;
46365;SDS011;32073;49.166;8.076;2023-05-07T02:06:47;1.83;;;0.98;;
46365;SDS011;32073;49.166;8.076;2023-05-07T02:10:47;1.58;;;1.05;;
46365;SDS011;32073;49.166;8.076;2023-05-07T02:14:49;1.80;;;0.98;;
46365;SDS011;32073;49.166;8.076;2023-05-07T02:18:50;1.75;;;1.13;;
46365;SDS011;32073;49.166;8.076;2023-05-07T02:22:51;2.42;;;1.50;;
46365;SDS011;32073;49.166;8.076;2023-05-07T02:26:51;1.40;;;0.80;;
46365;SDS011;32073;49.166;8.076;2023-05-07T02:30:52;2.00;;;1.15;;
46365;SDS011;32073;49.166;8.076;2023-05-07T02:34:52;2.85;;;1.00;;
46365;SDS011;32073;49.166;8.076;2023-05-07T02:38:53;2.70;;;1.23;;
46365;SDS011;32073;49.166;8.076;2023-05-07T02:42:54;1.77;;;1.25;;
46365;SDS011;32073;49.166;8.076;2023-05-07T02:46:55;1.17;;;0.98;;
46365;SDS011;32073;49.166;8.076;2023-05-07T02:50:56;2.15;;;1.05;;
46365;SDS011;32073;49.166;8.076;2023-05-07T02:54:57;2.95;;;1.27;;
46365;SDS011;32073;49.166;8.076;2023-05-07T02:58:58;1.10;;;0.93;;
46365;SDS011;32073;49.166;8.076;2023-05-07T03:02:58;2.25;;;1.25;;
46365;SDS011;32073;49.166;8.076;2023-05-07T03:06:59;1.30;;;0.90;;
46365;SDS011;32073;49.166;8.076;2023-05-07T03:11:00;2.30;;;1.02;;
46365;SDS011;32073;49.166;8.076;2023-05-07T03:15:00;1.98;;;1.10;;
46365;SDS011;32073;49.166;8.076;2023-05-07T03:19:01;2.85;;;0.90;;
46365;SDS011;32073;49.166;8.076;2023-05-07T03:23:02;1.23;;;0.95;;
46365;SDS011;32073;49.166;8.076;2023-05-07T03:27:03;1.10;;;0.95;;
46365;SDS011;32073;49.166;8.076;2023-05-07T03:31:03;7.55;;;1.33;;
46365;SDS011;32073;49.166;8.076;2023-05-07T03:35:05;2.58;;;1.20;;
46365;SDS011;32073;49.166;8.076;2023-05-07T03:39:06;2.08;;;1.20;;
46365;SDS011;32073;49.166;8.076;2023-05-07T03:43:07;0.80;;;0.80;;
46365;SDS011;32073;49.166;8.076;2023-05-07T03:47:08;1.27;;;1.17;;
46365;SDS011;32073;49.166;8.076;2023-05-07T03:51:10;1.67;;;1.20;;
46365;SDS011;32073;49.166;8.076;2023-05-07T03:55:10;2.10;;;1.17;;
46365;SDS011;32073;49.166;8.076;2023-05-07T03:59:12;2.00;;;1.10;;
46365;SDS011;32073;49.166;8.076;2023-05-07T04:03:13;1.83;;;1.15;;
46365;SDS011;32073;49.166;8.076;2023-05-07T04:07:14;0.98;;;0.90;;
46365;SDS011;32073;49.166;8.076;2023-05-07T04:11:15;1.10;;;1.00;;
46365;SDS011;32073;49.166;8.076;2023-05-07T04:15:15;1.27;;;1.00;;
46365;SDS011;32073;49.166;8.076;2023-05-07T04:19:16;1.60;;;1.30;;
46365;SDS011;32073;49.166;8.076;2023-05-07T04:23:17;1.15;;;0.98;;
46365;SDS011;32073;49.166;8.076;2023-05-07T04:27:18;1.73;;;1.10;;
46365;SDS011;32073;49.166;8.076;2023-05-07T04:31:18;5.22;;;1.50;;
46365;SDS011;32073;49.166;8.076;2023-05-07T04:35:19;1.95;;;1.40;;
46365;SDS011;32073;49.166;8.076;2023-05-07T04:39:20;3.10;;;1.17;;
46365;SDS011;32073;49.166;8.076;2023-05-07T04:43:20;1.83;;;1.15;;
46365;SDS011;32073;49.166;8.076;2023-05-07T04:47:21;2.03;;;1.10;;
46365;SDS011;32073;49.166;8.076;2023-05-07T04:51:22;3.20;;;1.48;;
46365;SDS011;32073;49.166;8.076;2023-05-07T04:55:23;2.92;;;1.40;;
46365;SDS011;32073;49.166;8.076;2023-05-07T04:59:23;3.15;;;1.60;;
46365;SDS011;32073;49.166;8.076;2023-05-07T05:03:24;1.77;;;1.25;;
46365;SDS011;32073;49.166;8.076;2023-05-07T05:07:25;2.20;;;1.35;;
46365;SDS011;32073;49.166;8.076;2023-05-07T05:11:25;3.30;;;1.10;;
46365;SDS011;32073;49.166;8.076;2023-05-07T05:15:26;3.08;;;1.17;;
46365;SDS011;32073;49.166;8.076;2023-05-07T05:19:27;1.88;;;1.10;;
46365;SDS011;32073;49.166;8.076;2023-05-07T05:23:27;1.15;;;1.05;;
46365;SDS011;32073;49.166;8.076;2023-05-07T05:27:28;2.35;;;1.25;;
46365;SDS011;32073;49.166;8.076;2023-05-07T05:31:29;2.35;;;1.40;;
46365;SDS011;32073;49.166;8.076;2023-05-07T05:35:30;2.90;;;1.48;;
46365;SDS011;32073;49.166;8.076;2023-05-07T05:39:31;2.20;;;1.42;;
46365;SDS011;32073;49.166;8.076;2023-05-07T05:43:32;2.65;;;1.75;;
46365;SDS011;32073;49.166;8.076;2023-05-07T05:47:32;2.85;;;1.17;;
46365;SDS011;32073;49.166;8.076;2023-05-07T05:51:33;1.98;;;1.33;;
46365;SDS011;32073;49.166;8.076;2023-05-07T05:55:34;4.00;;;1.45;;
46365;SDS011;32073;49.166;8.076;2023-05-07T05:59:34;3.30;;;1.48;;
46365;SDS011;32073;49.166;8.076;2023-05-07T06:03:35;2.10;;;1.30;;
46365;SDS011;32073;49.166;8.076;2023-05-07T06:07:36;2.88;;;1.50;;
46365;SDS011;32073;49.166;8.076;2023-05-07T06:11:36;1.30;;;1.10;;
46365;SDS011;32073;49.166;8.076;2023-05-07T06:15:37;2.00;;;1.30;;
46365;SDS011;32073;49.166;8.076;2023-05-07T06:19:38;3.13;;;1.50;;
46365;SDS011;32073;49.166;8.076;2023-05-07T06:23:38;4.35;;;1.60;;
46365;SDS011;32073;49.166;8.076;2023-05-07T06:27:40;2.33;;;1.70;;
46365;SDS011;32073;49.166;8.076;2023-05-07T06:31:41;2.33;;;1.42;;
46365;SDS011;32073;49.166;8.076;2023-05-07T06:35:42;2.35;;;1.40;;
46365;SDS011;32073;49.166;8.076;2023-05-07T06:39:42;2.85;;;1.67;;
46365;SDS011;32073;49.166;8.076;2023-05-07T06:43:43;1.88;;;1.48;;
46365;SDS011;32073;49.166;8.076;2023-05-07T06:47:44;2.92;;;1.65;;
46365;SDS011;32073;49.166;8.076;2023-05-07T06:51:44;1.83;;;1.45;;
46365;SDS011;32073;49.166;8.076;2023-05-07T06:55:45;1.95;;;1.50;;
46365;SDS011;32073;49.166;8.076;2023-05-07T06:59:46;3.28;;;1.67;;
46365;SDS011;32073;49.166;8.076;2023-05-07T07:03:46;2.20;;;1.60;;
46365;SDS011;32073;49.166;8.076;2023-05-07T07:07:47;4.40;;;1.45;;
46365;SDS011;32073;49.166;8.076;2023-05-07T07:11:52;1.92;;;1.50;;
46365;SDS011;32073;49.166;8.076;2023-05-07T07:15:53;2.05;;;1.30;;
46365;SDS011;32073;49.166;8.076;2023-05-07T07:19:53;2.03;;;1.30;;
46365;SDS011;32073;49.166;8.076;2023-05-07T07:23:54;3.10;;;1.60;;
46365;SDS011;32073;49.166;8.076;2023-05-07T07:27:55;3.08;;;1.55;;
46365;SDS011;32073;49.166;8.076;2023-05-07T07:31:56;2.45;;;1.45;;
46365;SDS011;32073;49.166;8.076;2023-05-07T07:35:56;2.75;;;1.65;;
46365;SDS011;32073;49.166;8.076;2023-05-07T07:39:57;1.75;;;1.42;;
46365;SDS011;32073;49.166;8.076;2023-05-07T07:43:57;1.50;;;1.25;;
46365;SDS011;32073;49.166;8.076;2023-05-07T07:47:58;1.38;;;1.27;;
46365;SDS011;32073;49.166;8.076;2023-05-07T07:51:59;3.97;;;2.05;;
46365;SDS011;32073;49.166;8.076;2023-05-07T07:55:59;1.30;;;1.13;;
46365;SDS011;32073;49.166;8.076;2023-05-07T08:00:00;2.65;;;1.90;;
46365;SDS011;32073;49.166;8.076;2023-05-07T08:04:01;2.85;;;1.85;;
46365;SDS011;32073;49.166;8.076;2023-05-07T08:08:03;1.80;;;1.52;;
46365;SDS011;32073;49.166;8.076;2023-05-07T08:12:07;2.35;;;1.70;;
46365;SDS011;32073;49.166;8.076;2023-05-07T08:16:08;3.78;;;1.40;;
46365;SDS011;32073;49.166;8.076;2023-05-07T08:20:09;3.30;;;1.88;;
46365;SDS011;32073;49.166;8.076;2023-05-07T08:24:10;3.30;;;1.60;;
46365;SDS011;32073;49.166;8.076;2023-05-07T08:28:11;4.03;;;1.75;;
46365;SDS011;32073;49.166;8.076;2023-05-07T08:32:12;2.45;;;1.60;;
46365;SDS011;32073;49.166;8.076;2023-05-07T08:36:12;2.38;;;1.60;;
46365;SDS011;32073;49.166;8.076;2023-05-07T08:40:13;3.40;;;1.70;;
46365;SDS011;32073;49.166;8.076;2023-05-07T08:44:14;2.25;;;1.55;;
46365;SDS011;32073;49.166;8.076;2023-05-07T08:48:17;3.25;;;1.77;;
46365;SDS011;32073;49.166;8.076;2023-05-07T08:52:22;1.92;;;1.30;;
46365;SDS011;32073;49.166;8.076;2023-05-07T08:56:22;3.65;;;1.70;;
46365;SDS011;32073;49.166;8.076;2023-05-07T09:00:23;2.80;;;1.50;;
46365;SDS011;32073;49.166;8.076;2023-05-07T09:04:24;1.63;;;1.40;;
46365;SDS011;32073;49.166;8.076;2023-05-07T09:08:25;2.20;;;1.50;;
46365;SDS011;32073;49.166;8.076;2023-05-07T09:12:27;2.15;;;1.30;;
46365;SDS011;32073;49.166;8.076;2023-05-07T09:16:28;2.80;;;1.95;;
46365;SDS011;32073;49.166;8.076;2023-05-07T09:20:30;5.28;;;1.58;;
46365;SDS011;32073;49.166;8.076;2023-05-07T09:24:31;2.05;;;1.63;;
46365;SDS011;32073;49.166;8.076;2023-05-07T09:28:38;1.90;;;1.70;;
46365;SDS011;32073;49.166;8.076;2023-05-07T09:32:41;1.42;;;1.30;;
46365;SDS011;32073;49.166;8.076;2023-05-07T09:36:41;2.10;;;1.90;;
46365;SDS011;32073;49.166;8.076;2023-05-07T09:40:42;3.15;;;1.70;;
46365;SDS011;32073;49.166;8.076;2023-05-07T09:44:43;4.55;;;1.50;;
46365;SDS011;32073;49.166;8.076;2023-05-07T09:48:44;2.17;;;1.60;;
46365;SDS011;32073;49.166;8.076;2023-05-07T09:52:45;2.55;;;1.90;;
46365;SDS011;32073;49.166;8.076;2023-05-07T09:56:48;2.85;;;1.55;;
46365;SDS011;32073;49.166;8.076;2023-05-07T10:00:49;3.13;;;1.70;;
46365;SDS011;32073;49.166;8.076;2023-05-07T10:04:51;1.73;;;1.52;;
46365;SDS011;32073;49.166;8.076;2023-05-07T10:08:53;2.15;;;1.65;;
46365;SDS011;32073;49.166;8.076;2023-05-07T10:12:54;5.10;;;2.03;;
46365;SDS011;32073;49.166;8.076;2023-05-07T10:16:55;1.58;;;1.48;;
46365;SDS011;32073;49.166;8.076;2023-05-07T10:20:57;4.15;;;1.73;;
46365;SDS011;32073;49.166;8.076;2023-05-07T10:25:09;2.75;;;1.90;;
46365;SDS011;32073;49.166;8.076;2023-05-07T10:29:29;2.83;;;1.60;;
46365;SDS011;32073;49.166;8.076;2023-05-07T10:33:51;1.90;;;1.70;;
46365;SDS011;32073;49.166;8.076;2023-05-07T10:37:54;4.93;;;4.25;;
46365;SDS011;32073;49.166;8.076;2023-05-07T10:41:55;3.00;;;2.03;;
46365;SDS011;32073;49.166;8.076;2023-05-07T10:54:18;2.35;;;1.80;;
46365;SDS011;32073;49.166;8.076;2023-05-07T11:02:21;1.77;;;1.55;;
46365;SDS011;32073;49.166;8.076;2023-05-07T11:06:23;1.42;;;1.33;;
46365;SDS011;32073;49.166;8.076;2023-05-07T11:10:46;1.88;;;1.33;;
46365;SDS011;32073;49.166;8.076;2023-05-07T11:14:56;1.67;;;1.52;;
46365;SDS011;32073;49.166;8.076;2023-05-07T11:18:57;2.95;;;1.67;;
46365;SDS011;32073;49.166;8.076;2023-05-07T11:22:58;2.58;;;1.60;;
46365;SDS011;32073;49.166;8.076;2023-05-07T11:26:59;3.80;;;1.50;;
46365;SDS011;32073;49.166;8.076;2023-05-07T11:31:00;2.97;;;1.95;;
46365;SDS011;32073;49.166;8.076;2023-05-07T11:35:01;2.65;;;1.98;;
46365;SDS011;32073;49.166;8.076;2023-05-07T11:39:02;3.85;;;1.52;;
46365;SDS011;32073;49.166;8.076;2023-05-07T11:43:10;3.13;;;2.00;;
46365;SDS011;32073;49.166;8.076;2023-05-07T11:47:11;1.63;;;1.40;;
46365;SDS011;32073;49.166;8.076;2023-05-07T11:51:20;2.78;;;1.60;;
46365;SDS011;32073;49.166;8.076;2023-05-07T11:55:23;2.28;;;1.52;;
46365;SDS011;32073;49.166;8.076;2023-05-07T11:59:25;2.08;;;1.48;;
46365;SDS011;32073;49.166;8.076;2023-05-07T12:03:26;3.40;;;1.45;;
46365;SDS011;32073;49.166;8.076;2023-05-07T12:07:27;3.33;;;1.60;;
46365;SDS011;32073;49.166;8.076;2023-05-07T12:11:27;2.60;;;1.48;;
46365;SDS011;32073;49.166;8.076;2023-05-07T12:15:28;1.95;;;1.45;;
46365;SDS011;32073;49.166;8.076;2023-05-07T12:19:29;3.15;;;1.48;;
46365;SDS011;32073;49.166;8.076;2023-05-07T12:23:30;2.60;;;1.73;;
46365;SDS011;32073;49.166;8.076;2023-05-07T12:27:31;2.15;;;1.38;;
46365;SDS011;32073;49.166;8.076;2023-05-07T12:31:32;1.25;;;1.15;;
46365;SDS011;32073;49.166;8.076;2023-05-07T12:35:36;1.67;;;1.40;;
46365;SDS011;32073;49.166;8.076;2023-05-07T12:39:44;1.70;;;1.17;;
46365;SDS011;32073;49.166;8.076;2023-05-07T12:43:48;1.42;;;1.00;;
46365;SDS011;32073;49.166;8.076;2023-05-07T12:47:48;2.63;;;1.45;;
46365;SDS011;32073;49.166;8.076;2023-05-07T12:51:49;0.98;;;0.90;;
46365;SDS011;32073;49.166;8.076;2023-05-07T12:55:51;4.15;;;1.67;;
46365;SDS011;32073;49.166;8.076;2023-05-07T12:59:57;1.52;;;1.38;;
46365;SDS011;32073;49.166;8.076;2023-05-07T13:04:00;2.47;;;1.50;;
46365;SDS011;32073;49.166;8.076;2023-05-07T13:08:03;1.40;;;1.30;;
46365;SDS011;32073;49.166;8.076;2023-05-07T13:12:04;1.77;;;1.25;;
46365;SDS011;32073;49.166;8.076;2023-05-07T13:16:07;6.22;;;1.48;;
46365;SDS011;32073;49.166;8.076;2023-05-07T13:20:10;3.17;;;1.42;;
46365;SDS011;32073;49.166;8.076;2023-05-07T13:24:15;2.75;;;1.30;;
46365;SDS011;32073;49.166;8.076;2023-05-07T13:28:16;2.97;;;1.20;;
46365;SDS011;32073;49.166;8.076;2023-05-07T13:32:17;2.28;;;1.30;;
46365;SDS011;32073;49.166;8.076;2023-05-07T13:36:18;2.63;;;1.50;;
46365;SDS011;32073;49.166;8.076;2023-05-07T13:40:18;3.65;;;1.35;;
46365;SDS011;32073;49.166;8.076;2023-05-07T13:44:19;2.25;;;1.05;;
46365;SDS011;32073;49.166;8.076;2023-05-07T13:48:20;7.18;;;1.52;;
46365;SDS011;32073;49.166;8.076;2023-05-07T13:52:21;2.28;;;0.85;;
46365;SDS011;32073;49.166;8.076;2023-05-07T13:56:22;1.50;;;0.90;;
46365;SDS011;32073;49.166;8.076;2023-05-07T14:00:23;2.40;;;1.60;;
46365;SDS011;32073;49.166;8.076;2023-05-07T14:04:25;1.65;;;0.80;;
46365;SDS011;32073;49.166;8.076;2023-05-07T14:08:25;1.98;;;0.80;;
46365;SDS011;32073;49.166;8.076;2023-05-07T14:12:26;1.48;;;0.90;;
46365;SDS011;32073;49.166;8.076;2023-05-07T14:16:27;2.58;;;1.00;;
46365;SDS011;32073;49.166;8.076;2023-05-07T14:20:28;1.45;;;0.90;;
46365;SDS011;32073;49.166;8.076;2023-05-07T14:24:30;1.10;;;0.90;;
46365;SDS011;32073;49.166;8.076;2023-05-07T14:28:32;1.15;;;0.90;;
46365;SDS011;32073;49.166;8.076;2023-05-07T14:32:33;2.42;;;0.90;;
46365;SDS011;32073;49.166;8.076;2023-05-07T14:36:33;1.48;;;1.10;;
46365;SDS011;32073;49.166;8.076;2023-05-07T14:40:34;1.15;;;0.70;;
46365;SDS011;32073;49.166;8.076;2023-05-07T14:44:35;1.90;;;1.17;;
46365;SDS011;32073;49.166;8.076;2023-05-07T14:48:36;1.45;;;1.00;;
46365;SDS011;32073;49.166;8.076;2023-05-07T14:52:36;1.30;;;0.80;;
46365;SDS011;32073;49.166;8.076;2023-05-07T14:56:37;1.17;;;0.98;;
46365;SDS011;32073;49.166;8.076;2023-05-07T15:00:38;1.23;;;0.93;;
46365;SDS011;32073;49.166;8.076;2023-05-07T15:04:38;1.23;;;1.00;;
46365;SDS011;32073;49.166;8.076;2023-05-07T15:08:45;2.38;;;1.10;;
46365;SDS011;32073;49.166;8.076;2023-05-07T15:12:46;2.55;;;1.25;;
46365;SDS011;32073;49.166;8.076;2023-05-07T15:16:46;2.30;;;1.20;;
46365;SDS011;32073;49.166;8.076;2023-05-07T15:20:48;2.13;;;0.90;;
46365;SDS011;32073;49.166;8.076;2023-05-07T15:24:49;1.88;;;0.70;;
46365;SDS011;32073;49.166;8.076;2023-05-07T15:28:49;1.23;;;0.60;;
46365;SDS011;32073;49.166;8.076;2023-05-07T15:32:50;1.40;;;0.60;;
46365;SDS011;32073;49.166;8.076;2023-05-07T15:36:51;1.05;;;0.50;;
46365;SDS011;32073;49.166;8.076;2023-05-07T15:40:52;2.05;;;0.70;;
46365;SDS011;32073;49.166;8.076;2023-05-07T15:44:52;2.42;;;0.50;;
46365;SDS011;32073;49.166;8.076;2023-05-07T15:48:53;2.28;;;0.60;;
46365;SDS011;32073;49.166;8.076;2023-05-07T15:52:55;1.83;;;0.80;;
46365;SDS011;32073;49.166;8.076;2023-05-07T15:56:56;3.78;;;0.65;;
46365;SDS011;32073;49.166;8.076;2023-05-07T16:00:56;5.50;;;0.93;;
46365;SDS011;32073;49.166;8.076;2023-05-07T16:04:57;1.38;;;0.80;;
46365;SDS011;32073;49.166;8.076;2023-05-07T16:08:57;1.40;;;0.60;;
46365;SDS011;32073;49.166;8.076;2023-05-07T16:12:58;1.70;;;0.70;;
46365;SDS011;32073;49.166;8.076;2023-05-07T16:16:59;1.55;;;0.57;;
46365;SDS011;32073;49.166;8.076;2023-05-07T16:21:00;0.77;;;0.63;;
46365;SDS011;32073;49.166;8.076;2023-05-07T16:25:01;1.63;;;0.60;;
46365;SDS011;32073;49.166;8.076;2023-05-07T16:29:03;1.08;;;0.60;;
46365;SDS011;32073;49.166;8.076;2023-05-07T16:33:05;2.28;;;0.70;;
46365;SDS011;32073;49.166;8.076;2023-05-07T16:37:07;1.42;;;0.52;;
46365;SDS011;32073;49.166;8.076;2023-05-07T16:41:07;1.10;;;0.50;;
46365;SDS011;32073;49.166;8.076;2023-05-07T16:45:09;0.82;;;0.32;;
46365;SDS011;32073;49.166;8.076;2023-05-07T16:49:10;0.57;;;0.40;;
46365;SDS011;32073;49.166;8.076;2023-05-07T16:53:11;0.45;;;0.30;;
46365;SDS011;32073;49.166;8.076;2023-05-07T16:57:11;0.68;;;0.40;;
46365;SDS011;32073;49.166;8.076;2023-05-07T17:01:12;1.40;;;0.38;;
46365;SDS011;32073;49.166;8.076;2023-05-07T17:05:14;0.35;;;0.30;;
46365;SDS011;32073;49.166;8.076;2023-05-07T17:09:15;1.05;;;0.50;;
46365;SDS011;32073;49.166;8.076;2023-05-07T17:13:15;1.65;;;0.60;;
46365;SDS011;32073;49.166;8.076;2023-05-07T17:17:16;1.02;;;0.45;;
46365;SDS011;32073;49.166;8.076;2023-05-07T17:21:16;0.90;;;0.68;;
46365;SDS011;32073;49.166;8.076;2023-05-07T17:25:17;2.50;;;1.30;;
46365;SDS011;32073;49.166;8.076;2023-05-07T17:29:18;1.05;;;0.73;;
46365;SDS011;32073;49.166;8.076;2023-05-07T17:33:19;2.35;;;0.50;;
46365;SDS011;32073;49.166;8.076;2023-05-07T17:37:20;0.68;;;0.50;;
46365;SDS011;32073;49.166;8.076;2023-05-07T17:41:20;0.93;;;0.65;;
46365;SDS011;32073;49.166;8.076;2023-05-07T17:45:21;0.43;;;0.43;;
46365;SDS011;32073;49.166;8.076;2023-05-07T17:49:22;0.63;;;0.50;;
46365;SDS011;32073;49.166;8.076;2023-05-07T17:53:23;1.33;;;0.70;;
46365;SDS011;32073;49.166;8.076;2023-05-07T17:57:23;1.00;;;0.80;;
46365;SDS011;32073;49.166;8.076;2023-05-07T18:01:24;2.53;;;0.43;;
46365;SDS011;32073;49.166;8.076;2023-05-07T18:05:25;1.05;;;0.70;;
46365;SDS011;32073;49.166;8.076;2023-05-07T18:09:26;0.40;;;0.40;;
46365;SDS011;32073;49.166;8.076;2023-05-07T18:13:26;1.25;;;0.47;;
46365;SDS011;32073;49.166;8.076;2023-05-07T18:17:27;0.43;;;0.38;;
46365;SDS011;32073;49.166;8.076;2023-05-07T18:21:28;0.50;;;0.50;;
46365;SDS011;32073;49.166;8.076;2023-05-07T18:25:28;1.27;;;0.47;;
46365;SDS011;32073;49.166;8.076;2023-05-07T18:29:29;0.90;;;0.60;;
46365;SDS011;32073;49.166;8.076;2023-05-07T18:33:30;0.63;;;0.50;;
46365;SDS011;32073;49.166;8.076;2023-05-07T18:37:32;0.70;;;0.50;;
46365;SDS011;32073;49.166;8.076;2023-05-07T18:41:34;0.70;;;0.70;;
46365;SDS011;32073;49.166;8.076;2023-05-07T18:45:35;0.80;;;0.40;;
46365;SDS011;32073;49.166;8.076;2023-05-07T18:49:37;0.47;;;0.40;;
46365;SDS011;32073;49.166;8.076;2023-05-07T18:53:38;0.90;;;0.80;;
46365;SDS011;32073;49.166;8.076;2023-05-07T18:57:39;1.45;;;0.90;;
46365;SDS011;32073;49.166;8.076;2023-05-07T19:01:40;0.45;;;0.40;;
46365;SDS011;32073;49.166;8.076;2023-05-07T19:05:43;0.60;;;0.60;;
46365;SDS011;32073;49.166;8.076;2023-05-07T19:09:44;0.63;;;0.60;;
46365;SDS011;32073;49.166;8.076;2023-05-07T19:13:45;0.85;;;0.68;;
46365;SDS011;32073;49.166;8.076;2023-05-07T19:17:46;1.58;;;1.40;;
46365;SDS011;32073;49.166;8.076;2023-05-07T19:21:46;2.55;;;1.73;;
46365;SDS011;32073;49.166;8.076;2023-05-07T19:25:47;2.92;;;1.45;;
46365;SDS011;32073;49.166;8.076;2023-05-07T19:29:48;3.47;;;1.20;;
46365;SDS011;32073;49.166;8.076;2023-05-07T19:33:48;1.80;;;1.60;;
46365;SDS011;32073;49.166;8.076;2023-05-07T19:37:49;1.52;;;1.20;;
46365;SDS011;32073;49.166;8.076;2023-05-07T19:41:50;2.20;;;2.00;;
46365;SDS011;32073;49.166;8.076;2023-05-07T19:45:51;1.20;;;1.10;;
46365;SDS011;32073;49.166;8.076;2023-05-07T19:49:52;0.82;;;0.70;;
46365;SDS011;32073;49.166;8.076;2023-05-07T19:53:53;1.73;;;0.80;;
46365;SDS011;32073;49.166;8.076;2023-05-07T19:57:53;3.33;;;1.88;;
46365;SDS011;32073;49.166;8.076;2023-05-07T20:01:54;1.25;;;1.00;;
46365;SDS011;32073;49.166;8.076;2023-05-07T20:05:55;1.58;;;0.90;;
46365;SDS011;32073;49.166;8.076;2023-05-07T20:09:56;1.45;;;1.05;;
46365;SDS011;32073;49.166;8.076;2023-05-07T20:13:56;0.95;;;0.60;;
46365;SDS011;32073;49.166;8.076;2023-05-07T20:17:57;2.25;;;0.60;;
46365;SDS011;32073;49.166;8.076;2023-05-07T20:21:58;1.95;;;0.90;;
46365;SDS011;32073;49.166;8.076;2023-05-07T20:25:58;0.75;;;0.50;;
46365;SDS011;32073;49.166;8.076;2023-05-07T20:29:59;1.95;;;0.88;;
46365;SDS011;32073;49.166;8.076;2023-05-07T20:34:00;1.77;;;1.00;;
46365;SDS011;32073;49.166;8.076;2023-05-07T20:38:01;1.33;;;0.90;;
46365;SDS011;32073;49.166;8.076;2023-05-07T20:42:02;1.38;;;1.10;;
46365;SDS011;32073;49.166;8.076;2023-05-07T20:46:02;1.20;;;0.85;;
46365;SDS011;32073;49.166;8.076;2023-05-07T20:50:06;1.52;;;0.80;;
46365;SDS011;32073;49.166;8.076;2023-05-07T20:54:07;1.27;;;0.75;;
46365;SDS011;32073;49.166;8.076;2023-05-07T20:58:07;0.52;;;0.43;;
46365;SDS011;32073;49.166;8.076;2023-05-07T21:02:08;1.15;;;0.50;;
46365;SDS011;32073;49.166;8.076;2023-05-07T21:06:09;1.45;;;0.70;;
46365;SDS011;32073;49.166;8.076;2023-05-07T21:10:10;0.85;;;0.60;;
46365;SDS011;32073;49.166;8.076;2023-05-07T21:14:10;0.77;;;0.68;;
46365;SDS011;32073;49.166;8.076;2023-05-07T21:18:11;1.58;;;0.60;;
46365;SDS011;32073;49.166;8.076;2023-05-07T21:22:12;0.85;;;0.60;;
46365;SDS011;32073;49.166;8.076;2023-05-07T21:26:18;0.85;;;0.45;;
46365;SDS011;32073;49.166;8.076;2023-05-07T21:30:20;1.00;;;0.68;;
46365;SDS011;32073;49.166;8.076;2023-05-07T21:34:21;0.40;;;0.40;;
46365;SDS011;32073;49.166;8.076;2023-05-07T21:38:22;0.65;;;0.50;;
46365;SDS011;32073;49.166;8.076;2023-05-07T21:42:23;0.65;;;0.60;;
46365;SDS011;32073;49.166;8.076;2023-05-07T21:46:24;1.00;;;0.70;;
46365;SDS011;32073;49.166;8.076;2023-05-07T21:50:25;3.05;;;0.57;;
46365;SDS011;32073;49.166;8.076;2023-05-07T21:54:25;1.67;;;0.60;;
46365;SDS011;32073;49.166;8.076;2023-05-07T21:58:26;0.50;;;0.50;;
46365;SDS011;32073;49.166;8.076;2023-05-07T22:02:28;1.33;;;0.80;;
46365;SDS011;32073;49.166;8.076;2023-05-07T22:06:28;1.27;;;1.02;;
46365;SDS011;32073;49.166;8.076;2023-05-07T22:10:30;1.58;;;0.82;;
46365;SDS011;32073;49.166;8.076;2023-05-07T22:14:31;1.85;;;1.00;;
46365;SDS011;32073;49.166;8.076;2023-05-07T22:18:31;1.38;;;1.13;;
46365;SDS011;32073;49.166;8.076;2023-05-07T22:22:32;1.55;;;1.13;;
46365;SDS011;32073;49.166;8.076;2023-05-07T22:26:53;1.83;;;1.17;;
46365;SDS011;32073;49.166;8.076;2023-05-07T22:30:54;3.05;;;1.08;;
46365;SDS011;32073;49.166;8.076;2023-05-07T22:34:55;5.72;;;1.77;;
46365;SDS011;32073;49.166;8.076;2023-05-07T22:38:56;2.03;;;1.60;;
46365;SDS011;32073;49.166;8.076;2023-05-07T22:42:57;1.30;;;1.20;;
46365;SDS011;32073;49.166;8.076;2023-05-07T22:46:57;1.33;;;1.17;;
46365;SDS011;32073;49.166;8.076;2023-05-07T22:50:58;2.42;;;1.50;;
46365;SDS011;32073;49.166;8.076;2023-05-07T22:54:59;1.70;;;1.60;;
46365;SDS011;32073;49.166;8.076;2023-05-07T22:58:59;1.70;;;1.42;;
46365;SDS011;32073;49.166;8.076;2023-05-07T23:03:00;2.03;;;1.40;;
46365;SDS011;32073;49.166;8.076;2023-05-07T23:07:00;4.05;;;1.45;;
46365;SDS011;32073;49.166;8.076;2023-05-07T23:11:01;1.50;;;1.40;;
46365;SDS011;32073;49.166;8.076;2023-05-07T23:15:02;1.60;;;1.50;;
46365;SDS011;32073;49.166;8.076;2023-05-07T23:19:03;1.48;;;1.38;;
46365;SDS011;32073;49.166;8.076;2023-05-07T23:23:03;1.95;;;1.30;;
46365;SDS011;32073;49.166;8.076;2023-05-07T23:27:05;3.25;;;1.92;;
46365;SDS011;32073;49.166;8.076;2023-05-07T23:31:09;1.70;;;1.58;;
46365;SDS011;32073;49.166;8.076;2023-05-07T23:35:11;3.60;;;2.35;;
46365;SDS011;32073;49.166;8.076;2023-05-07T23:39:12;1.90;;;1.73;;
46365;SDS011;32073;49.166;8.076;2023-05-07T23:43:12;3.25;;;2.95;;
46365;SDS011;32073;49.166;8.076;2023-05-07T23:47:13;3.72;;;3.15;;
46365;SDS011;32073;49.166;8.076;2023-05-07T23:51:14;3.65;;;3.17;;
46365;SDS011;32073;49.166;8.076;2023-05-07T23:55:15;4.25;;;3.40;;
46365;SDS011;32073;49.166;8.076;2023-05-07T23:59:16;3.78;;;3.35;;
